Map

Track Data

SID SEASON NUMBER BASIN SUBBASIN NAME ISO_TIME NATURE LAT LON WMO_WIND WMO_PRES WMO_AGENCY TRACK_TYPE DIST2LAND LANDFALL IFLAG USA_AGENCY USA_ATCF_ID USA_LAT USA_LON USA_RECORD USA_STATUS USA_WIND USA_PRES USA_SSHS USA_R34_NE USA_R34_SE USA_R34_SW USA_R34_NW USA_R50_NE USA_R50_SE USA_R50_SW USA_R50_NW USA_R64_NE USA_R64_SE USA_R64_SW USA_R64_NW USA_POCI USA_ROCI USA_RMW USA_EYE TOKYO_LAT TOKYO_LON TOKYO_GRADE TOKYO_WIND TOKYO_PRES TOKYO_R50_DIR TOKYO_R50_LONG TOKYO_R50_SHORT TOKYO_R30_DIR TOKYO_R30_LONG TOKYO_R30_SHORT TOKYO_LAND CMA_LAT CMA_LON CMA_CAT CMA_WIND CMA_PRES HKO_LAT HKO_LON HKO_CAT HKO_WIND HKO_PRES NEWDELHI_LAT NEWDELHI_LON NEWDELHI_GRADE NEWDELHI_WIND NEWDELHI_PRES NEWDELHI_CI NEWDELHI_DP NEWDELHI_POCI REUNION_LAT REUNION_LON REUNION_TYPE REUNION_WIND REUNION_PRES REUNION_TNUM REUNION_CI REUNION_RMW REUNION_R34_NE REUNION_R34_SE REUNION_R34_SW REUNION_R34_NW REUNION_R50_NE REUNION_R50_SE REUNION_R50_SW REUNION_R50_NW REUNION_R64_NE REUNION_R64_SE REUNION_R64_SW REUNION_R64_NW BOM_LAT BOM_LON BOM_TYPE BOM_WIND BOM_PRES BOM_TNUM BOM_CI BOM_RMW BOM_R34_NE BOM_R34_SE BOM_R34_SW BOM_R34_NW BOM_R50_NE BOM_R50_SE BOM_R50_SW BOM_R50_NW BOM_R64_NE BOM_R64_SE BOM_R64_SW BOM_R64_NW BOM_ROCI BOM_POCI BOM_EYE BOM_POS_METHOD BOM_PRES_METHOD NADI_LAT NADI_LON NADI_CAT NADI_WIND NADI_PRES WELLINGTON_LAT WELLINGTON_LON WELLINGTON_WIND WELLINGTON_PRES DS824_LAT DS824_LON DS824_STAGE DS824_WIND DS824_PRES TD9636_LAT TD9636_LON TD9636_STAGE TD9636_WIND TD9636_PRES TD9635_LAT TD9635_LON TD9635_WIND TD9635_PRES TD9635_ROCI NEUMANN_LAT NEUMANN_LON NEUMANN_CLASS NEUMANN_WIND NEUMANN_PRES MLC_LAT MLC_LON MLC_CLASS MLC_WIND MLC_PRES USA_GUST BOM_GUST BOM_GUST_PER REUNION_GUST REUNION_GUST_PER USA_SEAHGT USA_SEARAD_NE USA_SEARAD_SE USA_SEARAD_SW USA_SEARAD_NW STORM_SPEED STORM_DIR
2020224N12234 2020 52 EP MM NOT_NAMED 2020-08-11 06:00:00 NR 11.6000 -126.000 PROVISIONAL 2071 2055 O_____________ nhc_working_bt EP102020 11.6000 -126.000 DB 20 -3 1011 100 60 4 0
2020224N12234 2020 52 EP MM NOT_NAMED 2020-08-11 09:00:00 NR 11.8100 -126.022 PROVISIONAL 2055 2039 P_____________ EP102020 11.8100 -126.022 DB 20 -3 1011 100 60 4 0
2020224N12234 2020 52 EP MM NOT_NAMED 2020-08-11 12:00:00 NR 12.0000 -126.000 PROVISIONAL 2039 2023 O_____________ nhc_working_bt EP102020 12.0000 -126.000 DB 20 -3 1011 100 60 4 18
2020224N12234 2020 52 EP MM NOT_NAMED 2020-08-11 15:00:00 NR 12.1575 -125.908 PROVISIONAL 2015 1999 P_____________ EP102020 12.1575 -125.908 DB 22 -3 1011 100 60 4 33
2020224N12234 2020 52 EP MM NOT_NAMED 2020-08-11 18:00:00 NR 12.3000 -125.800 PROVISIONAL 1999 1984 O_____________ nhc_working_bt EP102020 12.3000 -125.800 DB 25 1008 -3 1011 100 60 3 32
2020224N12234 2020 52 EP MM NOT_NAMED 2020-08-11 21:00:00 NR 12.4425 -125.728 PROVISIONAL 1984 1968 P_____________ EP102020 12.4425 -125.728 DB 25 1007 -3 1009 100 75 3 17
2020224N12234 2020 52 EP MM NOT_NAMED 2020-08-12 00:00:00 NR 12.6000 -125.700 PROVISIONAL 1968 1952 O_____________ nhc_working_bt EP102020 12.6000 -125.700 DB 25 1007 -3 1008 100 90 4 4
2020224N12234 2020 52 EP MM NOT_NAMED 2020-08-12 03:00:00 NR 12.8150 -125.705 PROVISIONAL 1952 1943 P_____________ EP102020 12.8150 -125.705 DB 25 1007 -3 1009 110 90 4 347
2020224N12234 2020 52 EP MM NOT_NAMED 2020-08-12 06:00:00 NR 13.0000 -125.800 PROVISIONAL 1943 1943 O_____________ nhc_working_bt EP102020 13.0000 -125.800 DB 25 1008 -3 1011 120 90 4 312
2020224N12234 2020 52 EP MM NOT_NAMED 2020-08-12 09:00:00 NR 13.0725 -125.998 PROVISIONAL 1951 1951 P_____________ EP102020 13.0725 -125.998 DB 25 1007 -3 1010 135 90 5 282
2020224N12234 2020 52 EP MM NOT_NAMED 2020-08-12 12:00:00 NR 13.1000 -126.300 PROVISIONAL 1974 1974 O_____________ nhc_working_bt EP102020 13.1000 -126.300 DB 25 1006 -3 1009 150 90 7 277
2020224N12234 2020 52 EP MM NOT_NAMED 2020-08-12 15:00:00 NR 13.1500 -126.678 PROVISIONAL 1998 1998 P_____________ EP102020 13.1500 -126.678 DB 25 1006 -3 1009 150 70 8 277
2020224N12234 2020 52 EP MM NOT_NAMED 2020-08-12 18:00:00 DS 13.2000 -127.100 PROVISIONAL 2030 2030 O_____________ nhc_working_bt EP102020 13.2000 -127.100 LO 25 1006 -3 1009 150 50 8 277
2020224N12234 2020 52 EP MM NOT_NAMED 2020-08-12 21:00:00 DS 13.2499 -127.500 PROVISIONAL 2063 2056 P_____________ EP102020 13.2499 -127.500 LO 25 1005 -3 1008 150 45 8 277
2020224N12234 2020 52 EP MM NOT_NAMED 2020-08-13 00:00:00 DS 13.3000 -127.900 PROVISIONAL 2088 2088 O_____________ nhc_working_bt EP102020 13.3000 -127.900 LO 25 1005 -3 1007 150 40 35 8 277
2020224N12234 2020 52 EP MM NOT_NAMED 2020-08-13 03:00:00 DS 13.3424 -128.300 PROVISIONAL 2120 2118 P_____________ EP102020 13.3424 -128.300 LO 27 1004 -3 1007 135 40 8 277
2020224N12234 2020 52 EP MM NOT_NAMED 2020-08-13 06:00:00 TS 13.4000 -128.733 PROVISIONAL 2138 2138 O_____________ nhc_working_bt EP102020 13.4000 -128.700 TD 30 1004 -1 1008 120 40 40 8 281
2020224N12234 2020 52 EP MM NOT_NAMED 2020-08-13 09:00:00 TS 13.4950 -129.117 PROVISIONAL 2158 2158 P_____________ EP102020 13.4849 -129.100 TD 30 1004 -1 1008 120 40 8 285
2020224N12234 2020 52 EP MM NOT_NAMED 2020-08-13 12:00:00 TS 13.6000 -129.500 PROVISIONAL 2177 2177 O_____________ nhc_working_bt EP102020 13.6000 -129.500 TD 30 1004 -1 1009 120 40 40 8 285
2020224N12234 2020 52 EP MM NOT_NAMED 2020-08-13 15:00:00 TS 13.7042 -129.910 PROVISIONAL 2198 2198 P_____________ EP102020 13.7425 -129.915 TD 30 1004 -1 1009 120 40 8 287
2020224N12234 2020 52 EP MM NOT_NAMED 2020-08-13 18:00:00 TS 13.8333 -130.300 PROVISIONAL 2219 2211 O_____________ nhc_working_bt EP102020 13.9000 -130.300 TD 30 1004 -1 1009 120 40 40 8 296
2020224N12234 2020 52 EP MM NOT_NAMED 2020-08-13 21:00:00 TS 14.0466 -130.627 PROVISIONAL 2225 2217 P_____________ EP102020 14.0949 -130.622 TD 30 1004 -1 1008 120 40 7 302
2020224N12234 2020 52 EP MM NOT_NAMED 2020-08-14 00:00:00 TS 14.2000 -130.900 PROVISIONAL 2232 2232 O_____________ nhc_working_bt EP102020 14.2000 -130.900 TD 30 1004 -1 1008 120 40 40 5 284
2020224N12234 2020 52 EP MM NOT_NAMED 2020-08-14 03:00:00 TS 14.1691 -131.127 PROVISIONAL 2247 2247 P_____________ EP102020 14.0875 -131.165 TD 30 1004 -1 1008 120 40 5 248
2020224N12234 2020 52 EP MM NOT_NAMED 2020-08-14 06:00:00 TS 14.0333 -131.333 PROVISIONAL 2278 2278 O_____________ nhc_working_bt EP102020 13.9000 -131.400 TD 30 1004 -1 1008 120 40 40 5 233
2020224N12234 2020 52 EP MM NOT_NAMED 2020-08-14 09:00:00 TS 13.8691 -131.539 PROVISIONAL 2301 2301 P_____________ EP102020 13.7924 -131.577 TD 30 1004 -1 1008 120 40 6 234
2020224N12234 2020 52 EP MM NOT_NAMED 2020-08-14 12:00:00 TS 13.7000 -131.800 PROVISIONAL 2340 2340 O_____________ nhc_working_bt EP102020 13.7000 -131.800 TD 30 1004 -1 1008 120 40 40 7 246
2020224N12234 2020 52 EP MM NOT_NAMED 2020-08-14 15:00:00 TS 13.5827 -132.205 PROVISIONAL 2379 2379 P_____________ EP102020 13.5927 -132.200 TD 30 1004 -1 1008 120 35 8 256
2020224N12234 2020 52 EP MM NOT_NAMED 2020-08-14 18:00:00 TS 13.5000 -132.600 PROVISIONAL 2418 2418 O_____________ nhc_working_bt EP102020 13.5000 -132.600 TD 30 1004 -1 30 1008 120 30 40 12 45 45 45 6 257
2020224N12234 2020 52 EP MM NOT_NAMED 2020-08-14 21:00:00 TS 13.4349 -132.837 PROVISIONAL 2441 2421 P_____________ EP102020 13.4349 -132.837 TD 30 1004 -1 1007 120 30 12 45 45 45 4 256
2020224N12234 2020 52 EP MM NOT_NAMED 2020-08-15 00:00:00 TS 13.4000 -133.000 PROVISIONAL 2421 2400 O_____________ nhc_working_bt EP102020 13.4000 -133.000 TD 30 1004 -1 1007 120 30 40 12 45 45 45 3 264
2020224N12234 2020 52 EP MM NOT_NAMED 2020-08-15 03:00:00 TS 13.4025 -133.160 PROVISIONAL 2400 2390 P_____________ EP102020 13.4075 -133.165 TD 30 1004 -1 1007 120 30 12 45 45 45 3 270
2020224N12234 2020 52 EP MM NOT_NAMED 2020-08-15 06:00:00 TS 13.4000 -133.300 PROVISIONAL 2390 2380 O_____________ nhc_working_bt EP102020 13.4000 -133.300 TD 30 1004 -1 1007 120 30 40 12 45 45 45 3 260
2020224N12234 2020 52 EP MM NOT_NAMED 2020-08-15 09:00:00 TS 13.3533 -133.446 PROVISIONAL 2380 2363 P_____________ EP102020 13.3150 -133.408 TD 30 1004 -1 1007 120 30 12 45 45 45 3 243
2020224N12234 2020 52 EP MM NOT_NAMED 2020-08-15 12:00:00 TS 13.2667 -133.567 PROVISIONAL 2363 2363 O_____________ nhc_working_bt EP102020 13.2000 -133.500 TD 30 1004 -1 1007 120 30 40 12 45 45 45 3 219
2020224N12234 2020 52 EP MM NOT_NAMED 2020-08-15 15:00:00 TS 13.1158 -133.646 PROVISIONAL 2371 2361 P_____________ EP102020 13.0775 -133.608 TD 30 1004 -1 1007 120 30 12 45 45 45 3 206
2020224N12234 2020 52 EP MM NOT_NAMED 2020-08-15 18:00:00 TS 13.0000 -133.700 PROVISIONAL 2365 2355 O_____________ nhc_working_bt EP102020 13.0000 -133.700 TD 30 1004 -1 1007 120 30 40 12 45 45 45 2 227
2020224N12234 2020 52 EP MM NOT_NAMED 2020-08-15 21:00:00 TS 13.0150 -133.760 PROVISIONAL 2355 2351 P_____________ EP102020 13.0200 -133.765 TD 30 1004 -1 1007 120 30 1 317
2020224N12234 2020 52 EP MM NOT_NAMED 2020-08-16 00:00:00 TS 13.1000 -133.800 PROVISIONAL 2351 2347 O_____________ nhc_working_bt EP102020 13.1000 -133.800 TD 30 1005 -1 1007 120 30 40 2 350
2020224N12234 2020 52 EP MM NOT_NAMED 2020-08-16 03:00:00 TS 13.1850 -133.800 PROVISIONAL 2347 2343 P_____________ EP102020 13.1850 -133.800 TD 30 1005 -1 1008 120 30 2 8
2020224N12234 2020 52 EP MM NOT_NAMED 2020-08-16 06:00:00 TS 13.3000 -133.800 PROVISIONAL 2343 2339 O_____________ nhc_working_bt EP102020 13.3000 -133.800 TD 30 1006 -1 1010 120 30 40 2 349
2020224N12234 2020 52 EP MM NOT_NAMED 2020-08-16 09:00:00 TS 13.4275 -133.842 PROVISIONAL 2339 2321 P_____________ EP102020 13.4275 -133.842 TD 30 1006 -1 1010 120 30 3 343
2020224N12234 2020 52 EP MM NOT_NAMED 2020-08-16 12:00:00 TS 13.6000 -133.900 PROVISIONAL 2321 2314 O_____________ nhc_working_bt EP102020 13.6000 -133.900 TD 30 1006 -1 1010 120 30 40 4 346
2020224N12234 2020 52 EP MM NOT_NAMED 2020-08-16 15:00:00 TS 13.8435 -133.939 PROVISIONAL 2314 2293 P_____________ EP102020 13.8425 -133.950 TD 27 1006 -1 1010 120 30 5 349
2020224N12234 2020 52 EP MM NOT_NAMED 2020-08-16 18:00:00 DS 14.1000 -134.000 PROVISIONAL 2293 2276 O_____________ nhc_working_bt EP102020 14.1000 -134.000 LO 25 1007 -3 1010 120 30 35 5 343
2020224N12234 2020 52 EP MM NOT_NAMED 2020-08-16 21:00:00 DS 14.3105 -134.088 PROVISIONAL 2276 2259 P_____________ EP102020 14.3149 -134.005 LO 25 1007 -3 1010 120 30 5 330
2020224N12234 2020 52 EP MM NOT_NAMED 2020-08-17 00:00:00 DS 14.4881 -134.234 PROVISIONAL 2259 2225 O_____________ nhc_working_bt EP102020 14.5000 -134.100 LO 25 1007 -3 1010 120 30 5 311
2020224N12234 2020 52 EP MM NOT_NAMED 2020-08-17 03:00:00 DS 14.6455 -134.488 PROVISIONAL 2225 2187 P_____________ EP102020 14.6726 -134.405 LO 25 1007 -3 1010 120 30 6 297
2020224N12234 2020 52 EP MM NOT_NAMED 2020-08-17 06:00:00 DS 14.7793 -134.817 PROVISIONAL 2187 2153 O_____________ nhc_working_bt EP102020 14.8000 -134.800 LO 25 1007 -3 1010 120 30 7 289
2020224N12234 2020 52 EP MM NOT_NAMED 2020-08-17 09:00:00 DS 14.8649 -135.150 PROVISIONAL 2143 2112 P_____________ EP102020 14.8649 -135.150 LO 25 1007 -3 1009 120 35 7 280
2020224N12234 2020 52 EP MM NOT_NAMED 2020-08-17 12:00:00 DS 14.9000 -135.500 PROVISIONAL 2112 2081 O_____________ nhc_working_bt EP102020 14.9000 -135.500 LO 25 1007 -3 1009 120 40 7 277
2020224N12234 2020 52 EP MM NOT_NAMED 2020-08-17 15:00:00 DS 14.9451 -135.850 PROVISIONAL 2081 2037 P_____________ EP102020 14.9451 -135.850 LO 25 1007 -3 1009 120 40 7 278
2020224N12234 2020 52 EP MM NOT_NAMED 2020-08-17 18:00:00 DS 15.0000 -136.200 PROVISIONAL 2037 O_____________ nhc_working_bt EP102020 15.0000 -136.200 LO 25 1007 -3 1009 120 40 7 279

About IBTrACS Database

This database is a web-friendly format of International Best Track Archive for Climate Stewardship (IBTrACS), a global best track data archive curated by NOAA dating back to 1842.

Updated: 2021-11-26